PWSweather.com
Personal Weather Stations
Station Observations
AC5CV
Greenleaf Peninsula, Waco, TX 76710

Greenleaf PeninsulaWaco, TX 76710

Lat: 31.565, Lon: -97.198

Elevation: 570

Station Type: Ambient WS2080

http://johnchamber.dyndns.info/

High Low Average
Temperature 82.2°F27.9°C 74.3°F23.5°C 77.2°F25.1°C
Dew Point 74.2°F23.4°C 70.3°F21.3°C 72.7°F22.6°C
Winds 9.9 mph 15.9 kmh Calm Calm 3.0 mph SSE4.8 kmh SSE
Wind Gusts 22.4 mph36.0 kmh -- 6.0 mph9.7 kmh
Humidity 97% 68% 86%
Pressure 29.44 in997.0 mb 29.25 in990.5 mb -
Precipitation 0.33 in8.4 mm - -
Hour Temp Dew Point Humidity Winds Wind Gusts Pressure Precip Precip Rate Daily Precip Total
12:00 AM 82.4°F28.0°C 71.6°F22.0°C 70% 7.0 mph SSE11.3 kmh SSE 15.0 mph24.1 kmh 29.24 in990.2 mb 0.00 in0.0 mm 0.00 in0.0 mm 0.00 in0.0 mm
12:05 AM 82.4°F28.0°C 71.6°F22.0°C 70% 8.3 mph SSE13.4 kmh SSE 15.0 mph24.1 kmh 29.24 in990.2 mb 0.00 in0.0 mm 0.00 in0.0 mm 0.00 in0.0 mm
12:10 AM 82.4°F28.0°C 71.6°F22.0°C 70% 7.2 mph S11.6 kmh S 12.3 mph19.8 kmh 29.25 in990.5 mb 0.00 in0.0 mm 0.00 in0.0 mm 0.00 in0.0 mm
12:15 AM 82.2°F27.9°C 71.4°F21.9°C 70% 6.4 mph SE10.3 kmh SE 12.3 mph19.8 kmh 29.25 in990.5 mb 0.00 in0.0 mm 0.00 in0.0 mm 0.00 in0.0 mm
12:20 AM 82.2°F27.9°C 71.4°F21.9°C 70% 7.9 mph S12.7 kmh S 17.4 mph28.0 kmh 29.25 in990.5 mb 0.00 in0.0 mm 0.00 in0.0 mm 0.00 in0.0 mm
12:25 AM 82.1°F27.8°C 71.4°F21.9°C 70% 8.6 mph SSE13.8 kmh SSE 15.0 mph24.1 kmh 29.25 in990.5 mb 0.00 in0.0 mm 0.00 in0.0 mm 0.00 in0.0 mm
12:30 AM 82.0°F27.8°C 71.3°F21.8°C 70% 8.3 mph SSE13.4 kmh SSE 15.0 mph24.1 kmh 29.25 in990.5 mb 0.00 in0.0 mm 0.00 in0.0 mm 0.00 in0.0 mm
12:35 AM 81.9°F27.7°C 71.5°F21.9°C 71% 5.7 mph S9.2 kmh S 9.8 mph15.8 kmh 29.25 in990.5 mb 0.00 in0.0 mm 0.00 in0.0 mm 0.00 in0.0 mm
12:40 AM 81.7°F27.6°C 71.4°F21.9°C 71% 6.3 mph SE10.1 kmh SE 12.3 mph19.8 kmh 29.25 in990.5 mb 0.00 in0.0 mm 0.00 in0.0 mm 0.00 in0.0 mm
12:45 AM 81.7°F27.6°C 71.4°F21.9°C 71% 4.3 mph SSE6.9 kmh SSE 9.8 mph15.8 kmh 29.25 in990.5 mb 0.00 in0.0 mm 0.00 in0.0 mm 0.00 in0.0 mm
12:50 AM 81.7°F27.6°C 71.4°F21.9°C 71% 6.0 mph SSE9.7 kmh SSE 9.8 mph15.8 kmh 29.25 in990.5 mb 0.00 in0.0 mm 0.00 in0.0 mm 0.00 in0.0 mm
12:55 AM 81.3°F27.4°C 71.0°F21.7°C 71% 3.5 mph S5.6 kmh S 7.4 mph11.9 kmh 29.25 in990.5 mb 0.00 in0.0 mm 0.00 in0.0 mm 0.00 in0.0 mm
01:00 AM 81.3°F27.4°C 71.0°F21.7°C 71% 8.3 mph S13.4 kmh S 12.3 mph19.8 kmh 29.25 in990.5 mb 0.00 in0.0 mm 0.00 in0.0 mm 0.00 in0.0 mm
01:05 AM 81.3°F27.4°C 71.0°F21.7°C 71% 6.9 mph SSE11.1 kmh SSE 12.3 mph19.8 kmh 29.25 in990.5 mb 0.00 in0.0 mm 0.00 in0.0 mm 0.00 in0.0 mm
01:10 AM 81.2°F27.3°C 71.1°F21.7°C 72% 5.1 mph S8.2 kmh S 9.8 mph15.8 kmh 29.26 in990.9 mb 0.00 in0.0 mm 0.00 in0.0 mm 0.00 in0.0 mm
01:15 AM 81.1°F27.3°C 71.2°F21.8°C 72% 4.7 mph S7.6 kmh S 12.3 mph19.8 kmh 29.26 in990.9 mb 0.00 in0.0 mm 0.00 in0.0 mm 0.00 in0.0 mm
01:20 AM 81.1°F27.3°C 71.2°F21.8°C 72% 5.8 mph S9.3 kmh S 9.8 mph15.8 kmh 29.26 in990.9 mb 0.00 in0.0 mm 0.00 in0.0 mm 0.00 in0.0 mm
01:25 AM 81.1°F27.3°C 71.2°F21.8°C 72% 7.3 mph S11.7 kmh S 15.0 mph24.1 kmh 29.26 in990.9 mb 0.00 in0.0 mm 0.00 in0.0 mm 0.00 in0.0 mm
01:30 AM 81.0°F27.2°C 71.1°F21.7°C 72% 6.9 mph S11.1 kmh S 15.0 mph24.1 kmh 29.26 in990.9 mb 0.00 in0.0 mm 0.00 in0.0 mm 0.00 in0.0 mm
01:35 AM 80.9°F27.2°C 71.0°F21.7°C 72% 5.7 mph S9.2 kmh S 12.3 mph19.8 kmh 29.26 in990.9 mb 0.00 in0.0 mm 0.00 in0.0 mm 0.00 in0.0 mm
01:40 AM 80.7°F27.1°C 71.3°F21.8°C 73% 3.0 mph S4.8 kmh S 7.4 mph11.9 kmh 29.25 in990.5 mb 0.00 in0.0 mm 0.00 in0.0 mm 0.00 in0.0 mm
01:45 AM 80.6°F27.0°C 71.3°F21.8°C 73% 4.4 mph S7.1 kmh S 7.4 mph11.9 kmh 29.26 in990.9 mb 0.00 in0.0 mm 0.00 in0.0 mm 0.00 in0.0 mm
01:50 AM 80.6°F27.0°C 71.7°F22.1°C 74% 4.9 mph SSE7.9 kmh SSE 7.4 mph11.9 kmh 29.26 in990.9 mb 0.00 in0.0 mm 0.00 in0.0 mm 0.00 in0.0 mm
01:55 AM 80.5°F26.9°C 71.8°F22.1°C 75% 6.5 mph S10.5 kmh S 9.8 mph15.8 kmh 29.26 in990.9 mb 0.00 in0.0 mm 0.00 in0.0 mm 0.00 in0.0 mm
02:00 AM 80.3°F26.8°C 71.6°F22.0°C 75% 3.3 mph S5.3 kmh S 9.8 mph15.8 kmh 29.26 in990.9 mb 0.00 in0.0 mm 0.00 in0.0 mm 0.00 in0.0 mm
02:05 AM 80.2°F26.8°C 71.5°F21.9°C 75% 3.7 mph SSE6.0 kmh SSE 7.4 mph11.9 kmh 29.26 in990.9 mb 0.00 in0.0 mm 0.00 in0.0 mm 0.00 in0.0 mm
02:10 AM 80.1°F26.7°C 71.6°F22.0°C 76% 5.6 mph S9.0 kmh S 9.8 mph15.8 kmh 29.26 in990.9 mb 0.00 in0.0 mm 0.00 in0.0 mm 0.00 in0.0 mm
02:15 AM 79.8°F26.6°C 71.5°F21.9°C 76% 4.3 mph S6.9 kmh S 9.8 mph15.8 kmh 29.26 in990.9 mb 0.00 in0.0 mm 0.00 in0.0 mm 0.00 in0.0 mm
02:20 AM 79.4°F26.3°C 71.2°F21.8°C 76% 5.6 mph SSE9.0 kmh SSE 9.8 mph15.8 kmh 29.26 in990.9 mb 0.00 in0.0 mm 0.00 in0.0 mm 0.00 in0.0 mm
02:25 AM 79.3°F26.3°C 71.3°F21.8°C 76% 3.0 mph SSW4.8 kmh SSW 4.9 mph7.9 kmh 29.26 in990.9 mb 0.00 in0.0 mm 0.00 in0.0 mm 0.00 in0.0 mm
02:30 AM 79.3°F26.3°C 71.4°F21.9°C 77% 4.5 mph SSE7.2 kmh SSE 17.4 mph28.0 kmh 29.26 in990.9 mb 0.00 in0.0 mm 0.00 in0.0 mm 0.00 in0.0 mm
02:35 AM 79.2°F26.2°C 71.4°F21.9°C 77% 3.2 mph S5.1 kmh S 7.4 mph11.9 kmh 29.26 in990.9 mb 0.00 in0.0 mm 0.00 in0.0 mm 0.00 in0.0 mm
02:40 AM 79.1°F26.2°C 71.3°F21.8°C 77% 5.7 mph SSE9.2 kmh SSE 9.8 mph15.8 kmh 29.26 in990.9 mb 0.00 in0.0 mm 0.00 in0.0 mm 0.00 in0.0 mm
02:45 AM 79.0°F26.1°C 71.5°F21.9°C 78% 2.5 mph S4.0 kmh S 4.9 mph7.9 kmh 29.26 in990.9 mb 0.00 in0.0 mm 0.00 in0.0 mm 0.00 in0.0 mm
02:50 AM 79.0°F26.1°C 71.7°F22.1°C 78% 5.5 mph S8.9 kmh S 9.8 mph15.8 kmh 29.26 in990.9 mb 0.00 in0.0 mm 0.00 in0.0 mm 0.00 in0.0 mm
02:55 AM 78.8°F26.0°C 71.9°F22.2°C 79% 5.5 mph SSE8.9 kmh SSE 9.8 mph15.8 kmh 29.26 in990.9 mb 0.00 in0.0 mm 0.00 in0.0 mm 0.00 in0.0 mm
03:00 AM 78.6°F25.9°C 71.9°F22.2°C 80% 5.4 mph S8.7 kmh S 9.8 mph15.8 kmh 29.26 in990.9 mb 0.00 in0.0 mm 0.00 in0.0 mm 0.00 in0.0 mm
03:05 AM 78.6°F25.9°C 71.9°F22.2°C 80% 5.4 mph S8.7 kmh S 7.4 mph11.9 kmh 29.26 in990.9 mb 0.00 in0.0 mm 0.00 in0.0 mm 0.00 in0.0 mm
03:10 AM 78.6°F25.9°C 72.0°F22.2°C 80% 5.5 mph S8.9 kmh S 9.8 mph15.8 kmh 29.27 in991.2 mb 0.00 in0.0 mm 0.00 in0.0 mm 0.00 in0.0 mm
03:15 AM 78.6°F25.9°C 72.3°F22.4°C 81% 2.9 mph S4.7 kmh S 4.9 mph7.9 kmh 29.26 in990.9 mb 0.00 in0.0 mm 0.00 in0.0 mm 0.00 in0.0 mm
03:20 AM 78.6°F25.9°C 72.3°F22.4°C 81% 2.5 mph S4.0 kmh S 4.9 mph7.9 kmh 29.26 in990.9 mb 0.00 in0.0 mm 0.00 in0.0 mm 0.00 in0.0 mm
03:25 AM 78.6°F25.9°C 72.5°F22.5°C 82% 4.7 mph S7.6 kmh S 9.8 mph15.8 kmh 29.26 in990.9 mb 0.00 in0.0 mm 0.00 in0.0 mm 0.00 in0.0 mm
03:30 AM 78.6°F25.9°C 72.6°F22.6°C 82% 4.9 mph S7.9 kmh S 12.3 mph19.8 kmh 29.26 in990.9 mb 0.00 in0.0 mm 0.00 in0.0 mm 0.00 in0.0 mm
03:35 AM 78.6°F25.9°C 72.6°F22.6°C 82% 5.0 mph S8.0 kmh S 9.8 mph15.8 kmh 29.27 in991.2 mb 0.00 in0.0 mm 0.00 in0.0 mm 0.00 in0.0 mm
03:40 AM 78.6°F25.9°C 72.7°F22.6°C 82% 5.1 mph SSE8.2 kmh SSE 9.8 mph15.8 kmh 29.26 in990.9 mb 0.00 in0.0 mm 0.00 in0.0 mm 0.00 in0.0 mm
03:45 AM 78.4°F25.8°C 72.8°F22.7°C 83% 4.5 mph SSE7.2 kmh SSE 9.8 mph15.8 kmh 29.27 in991.2 mb 0.00 in0.0 mm 0.00 in0.0 mm 0.00 in0.0 mm
03:50 AM 78.2°F25.7°C 72.6°F22.6°C 83% 4.7 mph S7.6 kmh S 7.4 mph11.9 kmh 29.26 in990.9 mb 0.00 in0.0 mm 0.00 in0.0 mm 0.00 in0.0 mm
03:55 AM 77.9°F25.5°C 72.5°F22.5°C 84% 5.2 mph SSE8.4 kmh SSE 9.8 mph15.8 kmh 29.26 in990.9 mb 0.00 in0.0 mm 0.00 in0.0 mm 0.00 in0.0 mm
04:00 AM 77.2°F25.1°C 72.0°F22.2°C 84% 4.5 mph SE7.2 kmh SE 9.8 mph15.8 kmh 29.26 in990.9 mb 0.00 in0.0 mm 0.00 in0.0 mm 0.00 in0.0 mm
04:05 AM 77.2°F25.1°C 72.0°F22.2°C 84% 2.1 mph S3.4 kmh S 7.4 mph11.9 kmh 29.27 in991.2 mb 0.00 in0.0 mm 0.00 in0.0 mm 0.00 in0.0 mm
04:10 AM 77.2°F25.1°C 72.2°F22.3°C 84% 4.8 mph SSE7.7 kmh SSE 9.8 mph15.8 kmh 29.26 in990.9 mb 0.00 in0.0 mm 0.00 in0.0 mm 0.00 in0.0 mm
04:15 AM 77.2°F25.1°C 72.3°F22.4°C 85% 4.0 mph S6.4 kmh S 7.4 mph11.9 kmh 29.26 in990.9 mb 0.00 in0.0 mm 0.00 in0.0 mm 0.00 in0.0 mm
04:20 AM 77.2°F25.1°C 72.3°F22.4°C 85% 1.8 mph S2.9 kmh S 9.8 mph15.8 kmh 29.27 in991.2 mb 0.00 in0.0 mm 0.00 in0.0 mm 0.00 in0.0 mm
04:25 AM 77.2°F25.1°C 72.5°F22.5°C 86% 3.2 mph SE5.1 kmh SE 9.8 mph15.8 kmh 29.27 in991.2 mb 0.00 in0.0 mm 0.00 in0.0 mm 0.00 in0.0 mm
04:30 AM 77.2°F25.1°C 72.7°F22.6°C 86% 2.6 mph SSW4.2 kmh SSW 7.4 mph11.9 kmh 29.27 in991.2 mb 0.00 in0.0 mm 0.00 in0.0 mm 0.00 in0.0 mm
04:35 AM 77.2°F25.1°C 72.7°F22.6°C 86% 4.9 mph S7.9 kmh S 9.8 mph15.8 kmh 29.27 in991.2 mb 0.00 in0.0 mm 0.00 in0.0 mm 0.00 in0.0 mm
04:40 AM 77.2°F25.1°C 72.7°F22.6°C 86% 3.7 mph SSW6.0 kmh SSW 7.4 mph11.9 kmh 29.27 in991.2 mb 0.00 in0.0 mm 0.00 in0.0 mm 0.00 in0.0 mm
04:45 AM 77.2°F25.1°C 72.8°F22.7°C 86% 3.3 mph S5.3 kmh S 4.9 mph7.9 kmh 29.27 in991.2 mb 0.00 in0.0 mm 0.00 in0.0 mm 0.00 in0.0 mm
04:50 AM 77.2°F25.1°C 73.0°F22.8°C 87% 3.6 mph S5.8 kmh S 7.4 mph11.9 kmh 29.27 in991.2 mb 0.00 in0.0 mm 0.00 in0.0 mm 0.00 in0.0 mm
04:55 AM 77.2°F25.1°C 73.0°F22.8°C 87% 2.2 mph SW3.5 kmh SW 4.9 mph7.9 kmh 29.27 in991.2 mb 0.00 in0.0 mm 0.00 in0.0 mm 0.00 in0.0 mm
05:00 AM 77.2°F25.1°C 73.0°F22.8°C 87% 5.9 mph SSE9.5 kmh SSE 12.3 mph19.8 kmh 29.27 in991.2 mb 0.00 in0.0 mm 0.00 in0.0 mm 0.00 in0.0 mm
05:05 AM 77.2°F25.1°C 73.0°F22.8°C 87% 4.7 mph SSE7.6 kmh SSE 7.4 mph11.9 kmh 29.27 in991.2 mb 0.00 in0.0 mm 0.00 in0.0 mm 0.00 in0.0 mm
05:10 AM 77.2°F25.1°C 73.0°F22.8°C 87% 5.8 mph S9.3 kmh S 12.3 mph19.8 kmh 29.27 in991.2 mb 0.00 in0.0 mm 0.00 in0.0 mm 0.00 in0.0 mm
05:15 AM 77.2°F25.1°C 73.2°F22.9°C 87% 3.7 mph S6.0 kmh S 4.9 mph7.9 kmh 29.27 in991.2 mb 0.00 in0.0 mm 0.00 in0.0 mm 0.00 in0.0 mm
05:20 AM 77.2°F25.1°C 73.4°F23.0°C 88% 5.0 mph SSE8.0 kmh SSE 12.3 mph19.8 kmh 29.27 in991.2 mb 0.00 in0.0 mm 0.00 in0.0 mm 0.00 in0.0 mm
05:25 AM 77.2°F25.1°C 73.4°F23.0°C 88% 6.2 mph S10.0 kmh S 12.3 mph19.8 kmh 29.27 in991.2 mb 0.00 in0.0 mm 0.00 in0.0 mm 0.00 in0.0 mm
05:30 AM 77.2°F25.1°C 73.5°F23.1°C 88% 4.4 mph S7.1 kmh S 9.8 mph15.8 kmh 29.27 in991.2 mb 0.00 in0.0 mm 0.00 in0.0 mm 0.00 in0.0 mm
05:35 AM 77.2°F25.1°C 73.7°F23.2°C 89% 3.5 mph S5.6 kmh S 7.4 mph11.9 kmh 29.28 in991.5 mb 0.00 in0.0 mm 0.00 in0.0 mm 0.00 in0.0 mm
05:40 AM 77.2°F25.1°C 73.7°F23.2°C 89% 2.4 mph S3.9 kmh S 4.9 mph7.9 kmh 29.28 in991.5 mb 0.00 in0.0 mm 0.00 in0.0 mm 0.00 in0.0 mm
05:45 AM 77.2°F25.1°C 73.7°F23.2°C 89% 2.0 mph S3.2 kmh S 4.9 mph7.9 kmh 29.28 in991.5 mb 0.00 in0.0 mm 0.00 in0.0 mm 0.00 in0.0 mm
05:50 AM 77.2°F25.1°C 73.7°F23.2°C 89% 3.4 mph S5.5 kmh S 7.4 mph11.9 kmh 29.28 in991.5 mb 0.00 in0.0 mm 0.00 in0.0 mm 0.00 in0.0 mm
05:55 AM 77.2°F25.1°C 73.9°F23.3°C 90% 3.4 mph S5.5 kmh S 7.4 mph11.9 kmh 29.28 in991.5 mb 0.00 in0.0 mm 0.00 in0.0 mm 0.00 in0.0 mm
06:00 AM 77.2°F25.1°C 74.0°F23.3°C 90% 3.8 mph SSE6.1 kmh SSE 9.8 mph15.8 kmh 29.28 in991.5 mb 0.00 in0.0 mm 0.00 in0.0 mm 0.00 in0.0 mm
06:05 AM 77.2°F25.1°C 74.0°F23.3°C 90% 3.9 mph S6.3 kmh S 7.4 mph11.9 kmh 29.29 in991.9 mb 0.00 in0.0 mm 0.00 in0.0 mm 0.00 in0.0 mm
06:10 AM 77.2°F25.1°C 74.0°F23.3°C 90% 4.5 mph S7.2 kmh S 12.3 mph19.8 kmh 29.29 in991.9 mb 0.00 in0.0 mm 0.00 in0.0 mm 0.00 in0.0 mm
06:15 AM 77.2°F25.1°C 74.0°F23.3°C 90% 4.3 mph S6.9 kmh S 7.4 mph11.9 kmh 29.29 in991.9 mb 0.00 in0.0 mm 0.00 in0.0 mm 0.00 in0.0 mm
06:20 AM 77.1°F25.1°C 73.9°F23.3°C 90% 2.4 mph S3.9 kmh S 4.9 mph7.9 kmh 29.29 in991.9 mb 0.00 in0.0 mm 0.00 in0.0 mm 0.00 in0.0 mm
06:25 AM 77.0°F25.0°C 73.8°F23.2°C 90% 3.1 mph SSE5.0 kmh SSE 4.9 mph7.9 kmh 29.29 in991.9 mb 0.00 in0.0 mm 0.00 in0.0 mm 0.00 in0.0 mm
06:30 AM 77.0°F25.0°C 73.8°F23.2°C 90% 5.8 mph SSE9.3 kmh SSE 9.8 mph15.8 kmh 29.29 in991.9 mb 0.00 in0.0 mm 0.00 in0.0 mm 0.00 in0.0 mm
06:35 AM 77.0°F25.0°C 73.8°F23.2°C 90% 4.8 mph SSE7.7 kmh SSE 7.4 mph11.9 kmh 29.29 in991.9 mb 0.00 in0.0 mm 0.00 in0.0 mm 0.00 in0.0 mm
06:40 AM 77.0°F25.0°C 73.8°F23.2°C 90% 4.8 mph SSW7.7 kmh SSW 7.4 mph11.9 kmh 29.29 in991.9 mb 0.00 in0.0 mm 0.00 in0.0 mm 0.00 in0.0 mm
06:45 AM 77.0°F25.0°C 73.8°F23.2°C 90% 5.3 mph S8.5 kmh S 9.8 mph15.8 kmh 29.29 in991.9 mb 0.00 in0.0 mm 0.00 in0.0 mm 0.00 in0.0 mm
06:50 AM 77.0°F25.0°C 73.8°F23.2°C 90% 5.8 mph S9.3 kmh S 9.8 mph15.8 kmh 29.28 in991.5 mb 0.00 in0.0 mm 0.00 in0.0 mm 0.00 in0.0 mm
06:55 AM 77.0°F25.0°C 73.8°F23.2°C 90% 6.6 mph S10.6 kmh S 12.3 mph19.8 kmh 29.28 in991.5 mb 0.00 in0.0 mm 0.00 in0.0 mm 0.00 in0.0 mm
07:00 AM 77.0°F25.0°C 73.8°F23.2°C 90% 4.0 mph S6.4 kmh S 7.4 mph11.9 kmh 29.28 in991.5 mb 0.00 in0.0 mm 0.00 in0.0 mm 0.00 in0.0 mm
07:05 AM 76.9°F24.9°C 73.8°F23.2°C 90% 3.5 mph S5.6 kmh S 9.8 mph15.8 kmh 29.29 in991.9 mb 0.00 in0.0 mm 0.00 in0.0 mm 0.00 in0.0 mm
07:10 AM 76.8°F24.9°C 73.6°F23.1°C 90% 5.1 mph S8.2 kmh S 9.8 mph15.8 kmh 29.29 in991.9 mb 0.00 in0.0 mm 0.00 in0.0 mm 0.00 in0.0 mm
07:15 AM 76.8°F24.9°C 73.6°F23.1°C 90% 3.9 mph S6.3 kmh S 9.8 mph15.8 kmh 29.29 in991.9 mb 0.00 in0.0 mm 0.00 in0.0 mm 0.00 in0.0 mm
07:20 AM 77.0°F25.0°C 73.8°F23.2°C 90% 5.2 mph S8.4 kmh S 7.4 mph11.9 kmh 29.30 in992.2 mb 0.00 in0.0 mm 0.00 in0.0 mm 0.00 in0.0 mm
07:25 AM 76.9°F24.9°C 73.9°F23.3°C 90% 6.1 mph S9.8 kmh S 9.8 mph15.8 kmh 29.30 in992.2 mb 0.00 in0.0 mm 0.00 in0.0 mm 0.00 in0.0 mm
07:30 AM 76.8°F24.9°C 74.0°F23.3°C 91% 4.8 mph SE7.7 kmh SE 9.8 mph15.8 kmh 29.31 in992.6 mb 0.00 in0.0 mm 0.00 in0.0 mm 0.00 in0.0 mm
07:35 AM 76.8°F24.9°C 74.0°F23.3°C 91% 6.3 mph S10.1 kmh S 9.8 mph15.8 kmh 29.31 in992.6 mb 0.00 in0.0 mm 0.00 in0.0 mm 0.00 in0.0 mm
07:40 AM 76.8°F24.9°C 74.0°F23.3°C 91% 6.0 mph SE9.7 kmh SE 9.8 mph15.8 kmh 29.30 in992.2 mb 0.00 in0.0 mm 0.00 in0.0 mm 0.00 in0.0 mm
07:45 AM 76.8°F24.9°C 74.0°F23.3°C 91% 3.2 mph SSE5.1 kmh SSE 7.4 mph11.9 kmh 29.30 in992.2 mb 0.00 in0.0 mm 0.00 in0.0 mm 0.00 in0.0 mm
07:50 AM 76.8°F24.9°C 73.9°F23.3°C 91% 4.5 mph SSE7.2 kmh SSE 7.4 mph11.9 kmh 29.32 in992.9 mb 0.00 in0.0 mm 0.00 in0.0 mm 0.00 in0.0 mm
07:55 AM 76.8°F24.9°C 73.6°F23.1°C 90% 2.2 mph SSE3.5 kmh SSE 4.9 mph7.9 kmh 29.34 in993.6 mb 0.00 in0.0 mm 0.00 in0.0 mm 0.00 in0.0 mm
08:00 AM 76.9°F24.9°C 73.8°F23.2°C 90% 1.9 mph SE3.1 kmh SE 4.9 mph7.9 kmh 29.34 in993.6 mb 0.00 in0.0 mm 0.00 in0.0 mm 0.00 in0.0 mm
08:05 AM 77.0°F25.0°C 73.8°F23.2°C 90% 2.1 mph NW3.4 kmh NW 4.9 mph7.9 kmh 29.36 in994.2 mb 0.00 in0.0 mm 0.00 in0.0 mm 0.00 in0.0 mm
08:10 AM 77.0°F25.0°C 73.8°F23.2°C 90% 6.4 mph N10.3 kmh N 15.0 mph24.1 kmh 29.39 in995.3 mb 0.00 in0.0 mm 0.00 in0.0 mm 0.00 in0.0 mm
08:15 AM 77.0°F25.0°C 73.7°F23.2°C 90% 7.4 mph N11.9 kmh N 12.3 mph19.8 kmh 29.39 in995.3 mb 0.01 in0.3 mm 0.12 in3.0 mm 0.01 in0.3 mm
08:20 AM 76.2°F24.6°C 73.1°F22.8°C 90% 9.6 mph NNE15.4 kmh NNE 22.4 mph36.0 kmh 29.40 in995.6 mb 0.04 in1.0 mm 0.36 in9.1 mm 0.04 in1.0 mm
08:25 AM 75.6°F24.2°C 73.2°F22.9°C 92% 8.2 mph E13.2 kmh E 17.4 mph28.0 kmh 29.41 in995.9 mb 0.09 in2.3 mm 0.60 in15.2 mm 0.09 in2.3 mm
08:30 AM 75.3°F24.1°C 73.3°F22.9°C 93% 9.9 mph N15.9 kmh N 19.9 mph32.0 kmh 29.41 in995.9 mb 0.12 in3.0 mm 0.36 in9.1 mm 0.12 in3.0 mm
08:35 AM 75.0°F23.9°C 73.3°F22.9°C 94% 3.0 mph ENE4.8 kmh ENE 7.4 mph11.9 kmh 29.40 in995.6 mb 0.15 in3.8 mm 0.36 in9.1 mm 0.15 in3.8 mm
08:40 AM 74.6°F23.7°C 73.1°F22.8°C 95% 4.3 mph E6.9 kmh E 7.4 mph11.9 kmh 29.40 in995.6 mb 0.20 in5.1 mm 0.60 in15.2 mm 0.20 in5.1 mm
08:45 AM 74.3°F23.5°C 72.8°F22.7°C 95% 6.6 mph SSE10.6 kmh SSE 12.3 mph19.8 kmh 29.38 in994.9 mb 0.25 in6.4 mm 0.60 in15.2 mm 0.25 in6.4 mm
08:50 AM 74.3°F23.5°C 72.9°F22.7°C 96% 7.0 mph SE11.3 kmh SE 15.0 mph24.1 kmh 29.37 in994.6 mb 0.26 in6.6 mm 0.12 in3.0 mm 0.26 in6.6 mm
08:55 AM 74.4°F23.6°C 72.9°F22.7°C 95% 2.9 mph SE4.7 kmh SE 7.4 mph11.9 kmh 29.38 in994.9 mb 0.27 in6.9 mm 0.12 in3.0 mm 0.27 in6.9 mm
09:00 AM 75.0°F23.9°C 73.4°F23.0°C 95% 2.4 mph E3.9 kmh E 7.4 mph11.9 kmh 29.39 in995.3 mb 0.28 in7.1 mm 0.01 in0.3 mm 0.28 in7.1 mm
09:05 AM 75.4°F24.1°C 73.9°F23.3°C 95% 1.7 mph SE2.7 kmh SE 4.9 mph7.9 kmh 29.39 in995.3 mb 0.28 in7.1 mm 0.00 in0.0 mm 0.28 in7.1 mm
09:10 AM 75.4°F24.1°C 73.9°F23.3°C 95% 1.1 mph E1.8 kmh E 4.9 mph7.9 kmh 29.40 in995.6 mb 0.28 in7.1 mm 0.00 in0.0 mm 0.28 in7.1 mm
09:15 AM 75.4°F24.1°C 74.2°F23.4°C 96% 0.8 mph SSE1.3 kmh SSE 4.9 mph7.9 kmh 29.40 in995.6 mb 0.27 in6.9 mm 0.00 in0.0 mm 0.28 in7.1 mm
09:20 AM 75.3°F24.1°C 74.1°F23.4°C 96% 3.3 mph SSE5.3 kmh SSE 4.9 mph7.9 kmh 29.39 in995.3 mb 0.24 in6.1 mm 0.00 in0.0 mm 0.28 in7.1 mm
09:25 AM 75.2°F24.0°C 74.0°F23.3°C 96% 2.6 mph SSE4.2 kmh SSE 7.4 mph11.9 kmh 29.39 in995.3 mb 0.21 in5.3 mm 0.00 in0.0 mm 0.30 in7.6 mm
09:30 AM 75.2°F24.0°C 74.1°F23.4°C 96% 4.7 mph S7.6 kmh S 7.4 mph11.9 kmh 29.38 in994.9 mb 0.18 in4.6 mm 0.00 in0.0 mm 0.30 in7.6 mm
09:35 AM 75.0°F23.9°C 74.1°F23.4°C 97% 3.8 mph SSE6.1 kmh SSE 7.4 mph11.9 kmh 29.38 in994.9 mb 0.15 in3.8 mm 0.00 in0.0 mm 0.30 in7.6 mm
09:40 AM 75.0°F23.9°C 74.1°F23.4°C 97% 4.2 mph SSE6.8 kmh SSE 7.4 mph11.9 kmh 29.37 in994.6 mb 0.11 in2.8 mm 0.00 in0.0 mm 0.31 in7.9 mm
09:45 AM 74.8°F23.8°C 73.8°F23.2°C 97% 4.0 mph S6.4 kmh S 12.3 mph19.8 kmh 29.39 in995.3 mb 0.07 in1.8 mm 0.00 in0.0 mm 0.32 in8.1 mm
09:50 AM 74.8°F23.8°C 73.6°F23.1°C 96% 1.9 mph S3.1 kmh S 7.4 mph11.9 kmh 29.40 in995.6 mb 0.07 in1.8 mm 0.00 in0.0 mm 0.33 in8.4 mm
09:55 AM 74.8°F23.8°C 73.6°F23.1°C 96% 1.3 mph NW2.1 kmh NW 4.9 mph7.9 kmh 29.42 in996.3 mb 0.06 in1.5 mm 0.00 in0.0 mm 0.33 in8.4 mm
10:00 AM 74.7°F23.7°C 73.4°F23.0°C 96% 1.6 mph WNW2.6 kmh WNW 4.9 mph7.9 kmh 29.42 in996.3 mb 0.05 in1.3 mm 0.00 in0.0 mm 0.33 in8.4 mm
10:05 AM 74.5°F23.6°C 73.3°F22.9°C 96% 0.5 mph SW0.8 kmh SW 2.5 mph4.0 kmh 29.41 in995.9 mb 0.05 in1.3 mm 0.00 in0.0 mm 0.33 in8.4 mm
10:10 AM 74.5°F23.6°C 73.3°F22.9°C 96% 0.8 mph SW1.3 kmh SW 2.5 mph4.0 kmh 29.41 in995.9 mb 0.05 in1.3 mm 0.00 in0.0 mm 0.33 in8.4 mm
10:15 AM 74.5°F23.6°C 73.3°F22.9°C 96% Calm Calm -- 29.41 in995.9 mb 0.05 in1.3 mm 0.00 in0.0 mm 0.33 in8.4 mm
10:20 AM 74.6°F23.7°C 73.3°F22.9°C 96% Calm Calm -- 29.41 in995.9 mb 0.05 in1.3 mm 0.00 in0.0 mm 0.33 in8.4 mm
10:25 AM 74.8°F23.8°C 73.8°F23.2°C 97% Calm Calm -- 29.41 in995.9 mb 0.03 in0.8 mm 0.00 in0.0 mm 0.33 in8.4 mm
10:30 AM 74.8°F23.8°C 73.8°F23.2°C 97% Calm Calm -- 29.41 in995.9 mb 0.03 in0.8 mm 0.00 in0.0 mm 0.33 in8.4 mm
10:35 AM 74.8°F23.8°C 73.7°F23.2°C 96% Calm Calm -- 29.42 in996.3 mb 0.03 in0.8 mm 0.00 in0.0 mm 0.33 in8.4 mm
10:40 AM 74.9°F23.8°C 73.7°F23.2°C 96% 0.1 mph SW0.2 kmh SW 2.5 mph4.0 kmh 29.43 in996.6 mb 0.02 in0.5 mm 0.00 in0.0 mm 0.33 in8.4 mm
10:45 AM 75.2°F24.0°C 74.0°F23.3°C 96% 0.7 mph NNE1.1 kmh NNE 4.9 mph7.9 kmh 29.43 in996.6 mb 0.01 in0.3 mm 0.00 in0.0 mm 0.33 in8.4 mm
10:50 AM 75.2°F24.0°C 74.0°F23.3°C 96% 0.4 mph N0.6 kmh N 2.5 mph4.0 kmh 29.44 in997.0 mb 0.00 in0.0 mm 0.00 in0.0 mm 0.33 in8.4 mm
10:55 AM 75.2°F24.0°C 74.0°F23.3°C 96% 0.7 mph NE1.1 kmh NE 2.5 mph4.0 kmh 29.43 in996.6 mb 0.00 in0.0 mm 0.00 in0.0 mm 0.33 in8.4 mm
11:00 AM 75.2°F24.0°C 74.0°F23.3°C 96% 0.1 mph SW0.2 kmh SW 2.5 mph4.0 kmh 29.41 in995.9 mb 0.00 in0.0 mm 0.00 in0.0 mm 0.33 in8.4 mm
11:05 AM 75.2°F24.0°C 74.0°F23.3°C 96% Calm Calm -- 29.41 in995.9 mb 0.00 in0.0 mm 0.00 in0.0 mm 0.33 in8.4 mm
11:10 AM 75.2°F24.0°C 74.0°F23.3°C 96% Calm Calm -- 29.41 in995.9 mb 0.00 in0.0 mm 0.00 in0.0 mm 0.33 in8.4 mm
11:15 AM 75.2°F24.0°C 74.0°F23.3°C 96% Calm Calm -- 29.41 in995.9 mb 0.00 in0.0 mm 0.00 in0.0 mm 0.33 in8.4 mm
11:20 AM 75.2°F24.0°C 74.0°F23.3°C 96% 0.9 mph SE1.4 kmh SE 4.9 mph7.9 kmh 29.40 in995.6 mb 0.00 in0.0 mm 0.00 in0.0 mm 0.33 in8.4 mm
07:51 PM 75.0°F23.9°C 74.1°F23.4°C 97% 6.7 mph S10.8 kmh S 7.4 mph11.9 kmh 29.36 in994.2 mb 0.00 in0.0 mm 0.00 in0.0 mm 0.33 in8.4 mm
07:52 PM 75.0°F23.9°C 74.1°F23.4°C 97% 6.7 mph S10.8 kmh S 7.4 mph11.9 kmh 29.36 in994.2 mb 0.00 in0.0 mm 0.00 in0.0 mm 0.33 in8.4 mm
07:53 PM 75.0°F23.9°C 74.1°F23.4°C 97% 6.7 mph S10.8 kmh S 7.4 mph11.9 kmh 29.36 in994.2 mb 0.00 in0.0 mm 0.00 in0.0 mm 0.33 in8.4 mm
07:54 PM 75.0°F23.9°C 74.1°F23.4°C 97% 6.7 mph S10.8 kmh S 7.4 mph11.9 kmh 29.36 in994.2 mb 0.00 in0.0 mm 0.00 in0.0 mm 0.33 in8.4 mm
07:55 PM 82.2°F27.9°C 70.6°F21.4°C 68% 0.9 mph ESE1.4 kmh ESE 2.5 mph4.0 kmh 29.34 in993.6 mb 0.00 in0.0 mm 0.00 in0.0 mm 0.33 in8.4 mm
08:00 PM 82.2°F27.9°C 70.6°F21.4°C 68% 0.3 mph S0.5 kmh S 2.5 mph4.0 kmh 29.34 in993.6 mb 0.00 in0.0 mm 0.00 in0.0 mm 0.33 in8.4 mm
08:05 PM 82.0°F27.8°C 70.5°F21.4°C 68% Calm Calm 2.5 mph4.0 kmh 29.34 in993.6 mb 0.00 in0.0 mm 0.00 in0.0 mm 0.33 in8.4 mm
08:10 PM 81.5°F27.5°C 70.3°F21.3°C 69% 0.7 mph ENE1.1 kmh ENE 2.5 mph4.0 kmh 29.35 in993.9 mb 0.00 in0.0 mm 0.00 in0.0 mm 0.33 in8.4 mm
08:15 PM 81.5°F27.5°C 70.4°F21.3°C 69% 0.1 mph SE0.2 kmh SE 2.5 mph4.0 kmh 29.35 in993.9 mb 0.00 in0.0 mm 0.00 in0.0 mm 0.33 in8.4 mm
08:20 PM 81.5°F27.5°C 70.7°F21.5°C 70% 0.3 mph SE0.5 kmh SE 2.5 mph4.0 kmh 29.35 in993.9 mb 0.00 in0.0 mm 0.00 in0.0 mm 0.33 in8.4 mm
08:25 PM 81.3°F27.4°C 70.6°F21.4°C 70% Calm Calm -- 29.35 in993.9 mb 0.00 in0.0 mm 0.00 in0.0 mm 0.33 in8.4 mm
08:30 PM 80.6°F27.0°C 70.5°F21.4°C 72% Calm Calm -- 29.35 in993.9 mb 0.00 in0.0 mm 0.00 in0.0 mm 0.33 in8.4 mm
08:35 PM 80.6°F27.0°C 70.9°F21.6°C 72% Calm Calm -- 29.35 in993.9 mb 0.00 in0.0 mm 0.00 in0.0 mm 0.33 in8.4 mm
08:40 PM 80.5°F26.9°C 71.1°F21.7°C 73% Calm Calm -- 29.36 in994.2 mb 0.00 in0.0 mm 0.00 in0.0 mm 0.33 in8.4 mm
08:45 PM 80.3°F26.8°C 71.2°F21.8°C 74% Calm Calm -- 29.36 in994.2 mb 0.00 in0.0 mm 0.00 in0.0 mm 0.33 in8.4 mm
08:50 PM 79.4°F26.3°C 70.4°F21.3°C 74% Calm Calm -- 29.36 in994.2 mb 0.00 in0.0 mm 0.00 in0.0 mm 0.33 in8.4 mm
08:55 PM 79.2°F26.2°C 70.5°F21.4°C 75% Calm Calm -- 29.37 in994.6 mb 0.00 in0.0 mm 0.00 in0.0 mm 0.33 in8.4 mm
09:00 PM 79.2°F26.2°C 71.1°F21.7°C 76% Calm Calm -- 29.36 in994.2 mb 0.00 in0.0 mm 0.00 in0.0 mm 0.33 in8.4 mm
09:05 PM 79.0°F26.1°C 71.2°F21.8°C 77% Calm Calm -- 29.36 in994.2 mb 0.00 in0.0 mm 0.00 in0.0 mm 0.33 in8.4 mm
09:10 PM 78.6°F25.9°C 71.2°F21.8°C 78% Calm Calm -- 29.37 in994.6 mb 0.00 in0.0 mm 0.00 in0.0 mm 0.33 in8.4 mm
09:15 PM 78.3°F25.7°C 71.2°F21.8°C 79% Calm Calm -- 29.36 in994.2 mb 0.00 in0.0 mm 0.00 in0.0 mm 0.33 in8.4 mm
09:20 PM 78.3°F25.7°C 71.5°F21.9°C 80% Calm Calm -- 29.37 in994.6 mb 0.00 in0.0 mm 0.00 in0.0 mm 0.33 in8.4 mm
09:25 PM 78.3°F25.7°C 71.5°F21.9°C 80% Calm Calm -- 29.37 in994.6 mb 0.00 in0.0 mm 0.00 in0.0 mm 0.33 in8.4 mm
09:30 PM 77.5°F25.3°C 71.0°F21.7°C 80% Calm Calm -- 29.38 in994.9 mb 0.00 in0.0 mm 0.00 in0.0 mm 0.33 in8.4 mm
09:35 PM 77.2°F25.1°C 70.9°F21.6°C 81% Calm Calm -- 29.38 in994.9 mb 0.00 in0.0 mm 0.00 in0.0 mm 0.33 in8.4 mm
09:40 PM 77.2°F25.1°C 71.1°F21.7°C 82% Calm Calm -- 29.38 in994.9 mb 0.00 in0.0 mm 0.00 in0.0 mm 0.33 in8.4 mm
09:45 PM 77.2°F25.1°C 71.3°F21.8°C 82% Calm Calm -- 29.38 in994.9 mb 0.00 in0.0 mm 0.00 in0.0 mm 0.33 in8.4 mm
09:50 PM 77.2°F25.1°C 71.4°F21.9°C 82% Calm Calm -- 29.39 in995.3 mb 0.00 in0.0 mm 0.00 in0.0 mm 0.33 in8.4 mm
09:55 PM 77.2°F25.1°C 71.8°F22.1°C 84% Calm Calm -- 29.39 in995.3 mb 0.00 in0.0 mm 0.00 in0.0 mm 0.33 in8.4 mm
10:00 PM 77.2°F25.1°C 71.6°F22.0°C 83% Calm Calm -- 29.39 in995.3 mb 0.00 in0.0 mm 0.00 in0.0 mm 0.33 in8.4 mm
10:05 PM 77.2°F25.1°C 71.6°F22.0°C 83% Calm Calm -- 29.39 in995.3 mb 0.00 in0.0 mm 0.00 in0.0 mm 0.33 in8.4 mm
10:10 PM 77.2°F25.1°C 71.6°F22.0°C 83% Calm Calm -- 29.39 in995.3 mb 0.00 in0.0 mm 0.00 in0.0 mm 0.33 in8.4 mm
10:15 PM 77.2°F25.1°C 71.8°F22.1°C 84% Calm Calm -- 29.39 in995.3 mb 0.00 in0.0 mm 0.00 in0.0 mm 0.33 in8.4 mm
10:20 PM 77.2°F25.1°C 72.0°F22.2°C 84% Calm Calm -- 29.39 in995.3 mb 0.00 in0.0 mm 0.00 in0.0 mm 0.33 in8.4 mm
10:25 PM 77.2°F25.1°C 71.6°F22.0°C 83% Calm Calm -- 29.39 in995.3 mb 0.00 in0.0 mm 0.00 in0.0 mm 0.33 in8.4 mm
10:30 PM 77.5°F25.3°C 71.2°F21.8°C 81% Calm Calm -- 29.39 in995.3 mb 0.00 in0.0 mm 0.00 in0.0 mm 0.33 in8.4 mm
10:35 PM 78.6°F25.9°C 71.3°F21.8°C 78% Calm Calm -- 29.39 in995.3 mb 0.00 in0.0 mm 0.00 in0.0 mm 0.33 in8.4 mm
10:40 PM 78.6°F25.9°C 71.1°F21.7°C 78% Calm Calm -- 29.40 in995.6 mb 0.00 in0.0 mm 0.00 in0.0 mm 0.33 in8.4 mm
10:45 PM 78.6°F25.9°C 71.1°F21.7°C 78% Calm Calm -- 29.40 in995.6 mb 0.00 in0.0 mm 0.00 in0.0 mm 0.33 in8.4 mm
10:50 PM 78.0°F25.6°C 70.9°F21.6°C 79% Calm Calm -- 29.40 in995.6 mb 0.00 in0.0 mm 0.00 in0.0 mm 0.33 in8.4 mm
10:55 PM 77.2°F25.1°C 70.6°F21.4°C 80% Calm Calm -- 29.40 in995.6 mb 0.00 in0.0 mm 0.00 in0.0 mm 0.33 in8.4 mm
11:00 PM 77.1°F25.1°C 70.9°F21.6°C 81% Calm Calm -- 29.39 in995.3 mb 0.00 in0.0 mm 0.00 in0.0 mm 0.33 in8.4 mm
11:05 PM 77.0°F25.0°C 71.4°F21.9°C 83% Calm Calm -- 29.40 in995.6 mb 0.00 in0.0 mm 0.00 in0.0 mm 0.33 in8.4 mm
11:10 PM 77.0°F25.0°C 71.9°F22.2°C 84% Calm Calm -- 29.40 in995.6 mb 0.00 in0.0 mm 0.00 in0.0 mm 0.33 in8.4 mm
11:15 PM 76.9°F24.9°C 72.2°F22.3°C 86% Calm Calm -- 29.40 in995.6 mb 0.00 in0.0 mm 0.00 in0.0 mm 0.33 in8.4 mm
11:20 PM 76.8°F24.9°C 72.5°F22.5°C 86% Calm Calm -- 29.40 in995.6 mb 0.00 in0.0 mm 0.00 in0.0 mm 0.33 in8.4 mm
11:25 PM 76.8°F24.9°C 72.6°F22.6°C 87% Calm Calm -- 29.41 in995.9 mb 0.00 in0.0 mm 0.00 in0.0 mm 0.33 in8.4 mm
11:30 PM 76.5°F24.7°C 72.6°F22.6°C 88% Calm Calm -- 29.41 in995.9 mb 0.00 in0.0 mm 0.00 in0.0 mm 0.33 in8.4 mm
11:35 PM 75.9°F24.4°C 72.3°F22.4°C 89% Calm Calm -- 29.41 in995.9 mb 0.00 in0.0 mm 0.00 in0.0 mm 0.33 in8.4 mm
11:40 PM 75.9°F24.4°C 72.4°F22.4°C 89% Calm Calm -- 29.41 in995.9 mb 0.00 in0.0 mm 0.00 in0.0 mm 0.33 in8.4 mm
11:45 PM 75.9°F24.4°C 72.4°F22.4°C 89% Calm Calm -- 29.41 in995.9 mb 0.00 in0.0 mm 0.00 in0.0 mm 0.33 in8.4 mm
11:50 PM 75.9°F24.4°C 72.5°F22.5°C 89% Calm Calm -- 29.41 in995.9 mb 0.00 in0.0 mm 0.00 in0.0 mm 0.33 in8.4 mm
11:55 PM 75.9°F24.4°C 72.7°F22.6°C 90% Calm Calm -- 29.41 in995.9 mb 0.00 in0.0 mm 0.00 in0.0 mm 0.33 in8.4 mm